Jfe Mercury — JD2719 — position and weather

sailwx.info

Track history (hours):
 
Tides and Currents Weather Stations Pressure Air Temp Water Temp Dewpoint Dewpoint Depression Visibility Wind Speed Wind Dir Waves Ship Positions

Jfe Mercury

Last reported at 2017-Dec-11 16:59 UTC. Time now 2017-Dec-11 19:12 UTC.
Position N 34°35' E 135°18'.

Length 152 m; draft 4.1 m.

Type: Cargo ship. MMSI: 431000822.

Date/timePositionNaut miles runAvg speedWind from/ knotsBaromVisibWave heightAir tempDewpointWater temp
2017-Dec-11 16:59N 34°35' E 135°18'0 0.0
2017-Dec-11 16:29N 34°35' E 135°18'0 0.1
2017-Dec-11 15:59N 34°35' E 135°18'0 0.0
2017-Dec-11 15:29N 34°35' E 135°18'0 0.0
2017-Dec-11 14:59N 34°35' E 135°18'0 0.0
2017-Dec-11 14:29N 34°35' E 135°18'0 0.0
2017-Dec-11 13:59N 34°35' E 135°18'0 0.1
2017-Dec-11 13:29N 34°35' E 135°18'0 0.1
2017-Dec-11 12:59N 34°35' E 135°18'0 0.1
2017-Dec-11 12:29N 34°35' E 135°18'0 0.1
2017-Dec-11 11:59N 34°35' E 135°18'0 0.1
2017-Dec-11 11:29N 34°35' E 135°18'0 0.0
2017-Dec-11 10:59N 34°35' E 135°18'0 0.1
2017-Dec-11 10:29N 34°35' E 135°18'0 0.1
2017-Dec-11 09:59N 34°35' E 135°18'0 0.0
2017-Dec-11 09:29N 34°35' E 135°18'0 0.0
2017-Dec-11 08:59N 34°35' E 135°18'0 0.1
2017-Dec-11 08:29N 34°35' E 135°18'0 0.0
2017-Dec-11 07:59N 34°35' E 135°18'0 0.1
2017-Dec-11 07:29N 34°35' E 135°18'0 0.1
2017-Dec-11 06:59N 34°35' E 135°18'0 0.1
2017-Dec-11 06:29N 34°35' E 135°18'0 0.1
2017-Dec-11 05:56N 34°35' E 135°18'0 0.0
2017-Dec-11 05:29N 34°35' E 135°18'0 0.1
2017-Dec-11 04:59N 34°35' E 135°18'0 0.0
2017-Dec-11 04:29N 34°35' E 135°18'0 0.1
2017-Dec-11 03:59N 34°35' E 135°18'0 0.0
2017-Dec-11 03:29N 34°35' E 135°18'0 0.0
2017-Dec-11 02:59N 34°35' E 135°18'0 0.0
2017-Dec-11 02:29N 34°35' E 135°18'0 0.1
2017-Dec-11 01:59N 34°35' E 135°18'0 0.0
2017-Dec-11 01:29N 34°35' E 135°18'0 0.0
2017-Dec-11 00:59N 34°35' E 135°18'2 3.1
2017-Dec-11 00:30N 34°34' E 135°17'510.8
2017-Dec-11 00:00N 34°30' E 135°13'510.6
2017-Dec-10 23:30N 34°26' E 135°09'510.4
2017-Dec-10 23:00N 34°22' E 135°04'510.5
2017-Dec-10 22:30N 34°18' E 135°00'4 8.8
2017-Dec-10 22:00N 34°14' E 134°60'510.3
2017-Dec-10 21:30N 34°09' E 135°00'510.1
2017-Dec-10 21:00N 34°04' E 135°01'510.5
2017-Dec-10 20:30N 33°58' E 135°02'510.0
2017-Dec-10 19:59N 33°53' E 135°02'4 9.0
2017-Dec-10 19:29N 33°49' E 135°05'105 8.1
2017-Dec-10 06:36N 34°34' E 137°00'3 9.2
2017-Dec-10 06:14N 34°37' E 136°58'310.9
2017-Dec-10 06:00N 34°39' E 136°58'511.1
2017-Dec-10 05:30N 34°44' E 136°59'510.8
2017-Dec-10 05:00N 34°50' E 136°56'2 4.5
2017-Dec-10 04:29N 34°52' E 136°56'0 0.0
2017-Dec-10 03:59N 34°52' E 136°56'0 0.0
2017-Dec-10 03:29N 34°52' E 136°56'0 0.0
2017-Dec-10 02:59N 34°52' E 136°56'0 0.0
2017-Dec-10 02:29N 34°52' E 136°56'0 0.0
2017-Dec-10 01:47N 34°52' E 136°56'0 0.0
2017-Dec-10 01:29N 34°52' E 136°56'0 0.0
2017-Dec-10 00:59N 34°52' E 136°56'0 0.0
2017-Dec-10 00:29N 34°52' E 136°56'0 0.3
2017-Dec-10 00:01N 34°52' E 136°56'3 6.5
2017-Dec-09 23:31N 34°49' E 136°57'510.8
2017-Dec-09 23:01N 34°44' E 136°59'611.2
2017-Dec-09 22:31N 34°38' E 136°59'510.5
2017-Dec-09 22:01N 34°33' E 137°01'711.4
2017-Dec-09 21:26N 34°33' E 137°09'510.9
2017-Dec-09 21:00N 34°33' E 137°15'510.9
2017-Dec-09 20:31N 34°33' E 137°22'44 9.9
2017-Dec-09 16:06N 34°33' E 138°15'1 8.4
2017-Dec-09 15:58N 34°33' E 138°16'5 9.0
2017-Dec-09 15:25N 34°33' E 138°22'4 8.8
2017-Dec-09 15:00N 34°33' E 138°26'4 8.4
2017-Dec-09 14:30N 34°34' E 138°32'4 7.4
2017-Dec-09 13:56N 34°34' E 138°37'3 7.3
2017-Dec-09 13:29N 34°35' E 138°40'4 8.0
2017-Dec-09 13:00N 34°35' E 138°45'4 8.0
2017-Dec-09 12:30N 34°35' E 138°50'4 7.7
2017-Dec-09 11:59N 34°35' E 138°55'6 9.7
2017-Dec-09 11:21N 34°39' E 139°01'411.1
2017-Dec-09 10:59N 34°42' E 139°03'510.6
2017-Dec-09 10:30N 34°47' E 139°07'711.0
2017-Dec-09 09:54N 34°52' E 139°11'411.1
2017-Dec-09 09:30N 34°55' E 139°16'510.0
2017-Dec-09 08:58N 34°58' E 139°21'4 9.2
2017-Dec-09 08:30N 34°60' E 139°26'4 8.7
2017-Dec-09 08:01N 35°02' E 139°30'5 9.8
2017-Dec-09 07:31N 35°04' E 139°36'611.1
2017-Dec-09 07:00N 35°07' E 139°41'611.4
2017-Dec-09 06:30N 35°12' E 139°45'510.2
2017-Dec-09 06:00N 35°17' E 139°45'510.5
2017-Dec-09 05:30N 35°22' E 139°42'510.9
2017-Dec-09 05:00N 35°27' E 139°43'1 2.0
2017-Dec-09 04:28N 35°28' E 139°43'0 0.0
2017-Dec-09 03:58N 35°28' E 139°43'0 0.0
2017-Dec-09 03:28N 35°28' E 139°43'0 0.0
2017-Dec-09 02:58N 35°28' E 139°43'0 0.0
2017-Dec-09 02:28N 35°28' E 139°43'0 0.0
2017-Dec-09 01:58N 35°28' E 139°43'0 0.0
2017-Dec-09 01:28N 35°28' E 139°43'0 0.0
2017-Dec-09 00:55N 35°28' E 139°43'0 0.0
2017-Dec-09 00:28N 35°28' E 139°43'0 0.0
2017-Dec-08 23:55N 35°28' E 139°43'0 0.3
2017-Dec-08 23:30N 35°28' E 139°43'2 4.6
2017-Dec-08 23:00N 35°27' E 139°45'4 7.6
2017-Dec-08 22:30N 35°29' E 139°50'4 7.4
2017-Dec-08 22:00N 35°31' E 139°53'4 7.4
2017-Dec-08 21:30N 35°33' E 139°57'3 6.7
2017-Dec-08 21:01N 35°34' E 140°01'5 9.4
2017-Dec-08 20:30N 35°33' E 140°07'0 0.1
2017-Dec-08 18:58N 35°33' E 140°07'0 0.0
2017-Dec-08 14:34N 35°33' E 140°07'0 0.0
2017-Dec-08 14:16N 35°33' E 140°07'0 0.0
2017-Dec-08 13:46N 35°33' E 140°07'0 0.0
2017-Dec-08 13:16N 35°33' E 140°07'0 0.0
2017-Dec-08 12:46N 35°33' E 140°07'0 0.0
2017-Dec-08 12:28N 35°33' E 140°07'0 0.0
2017-Dec-08 10:52N 35°33' E 140°07'0 0.0
2017-Dec-08 10:28N 35°33' E 140°07'2 5.3
2017-Dec-08 10:00N 35°33' E 140°04'2 3.7
2017-Dec-08 09:29N 35°34' E 140°02'0 0.0
2017-Dec-08 08:59N 35°34' E 140°02'0 0.1
2017-Dec-08 08:29N 35°34' E 140°02'0 0.0
2017-Dec-08 07:59N 35°34' E 140°02'0 0.0
2017-Dec-08 07:29N 35°34' E 140°02'0 0.0
2017-Dec-08 06:59N 35°34' E 140°02'0 0.1
2017-Dec-08 06:29N 35°34' E 140°02'0 0.0
2017-Dec-08 05:59N 35°34' E 140°02'0 0.0
2017-Dec-08 05:29N 35°34' E 140°02'0 0.0
2017-Dec-08 04:59N 35°34' E 140°02'0 0.0
2017-Dec-08 04:29N 35°34' E 140°02'0 0.0
2017-Dec-08 03:59N 35°34' E 140°02'0 0.0
2017-Dec-08 03:29N 35°34' E 140°02'0 0.0
2017-Dec-08 02:59N 35°34' E 140°02'0 0.0
2017-Dec-08 02:29N 35°34' E 140°02'0 0.0
2017-Dec-08 01:59N 35°34' E 140°02'0 0.1
2017-Dec-08 01:29N 35°34' E 140°02'0 0.0
2017-Dec-08 00:59N 35°34' E 140°02'0 0.1
2017-Dec-08 00:29N 35°34' E 140°02'0 0.1
2017-Dec-07 23:59N 35°34' E 140°02'0 0.0
2017-Dec-07 23:29N 35°34' E 140°02'0 0.0
2017-Dec-07 22:59N 35°34' E 140°02'0 0.1
2017-Dec-07 22:29N 35°34' E 140°02'0 0.2
2017-Dec-07 21:59N 35°34' E 140°02'0 0.2
2017-Dec-07 21:29N 35°34' E 140°02'0 0.1
2017-Dec-07 20:59N 35°34' E 140°02'0 0.0
2017-Dec-07 20:29N 35°34' E 140°02'0 0.0
2017-Dec-07 19:59N 35°34' E 140°02'0 0.0
2017-Dec-07 19:29N 35°34' E 140°02'0 0.0
2017-Dec-07 18:59N 35°34' E 140°02'0 0.1
2017-Dec-07 18:29N 35°34' E 140°02'0 0.0
2017-Dec-07 17:59N 35°34' E 140°02'0 0.0
2017-Dec-07 17:29N 35°34' E 140°02'0 0.0
2017-Dec-07 16:59N 35°34' E 140°02'0 0.0
2017-Dec-07 16:29N 35°34' E 140°02'0 0.0
2017-Dec-07 15:59N 35°34' E 140°02'0 0.0
2017-Dec-07 15:29N 35°34' E 140°02'0 0.1
2017-Dec-07 14:59N 35°34' E 140°02'0 0.0
2017-Dec-07 14:29N 35°34' E 140°02'0 0.0
2017-Dec-07 13:59N 35°34' E 140°02'0 0.0
2017-Dec-07 13:29N 35°34' E 140°02'0 0.1
2017-Dec-07 12:59N 35°34' E 140°02'0 0.2
2017-Dec-07 12:29N 35°34' E 140°02'0 0.0
2017-Dec-07 11:59N 35°34' E 140°02'0 0.0
2017-Dec-07 11:29N 35°34' E 140°02'0 0.0
2017-Dec-07 10:59N 35°34' E 140°02'0 0.0
2017-Dec-07 10:29N 35°34' E 140°02'0 0.0
2017-Dec-07 09:59N 35°34' E 140°02'0 0.0
2017-Dec-07 09:29N 35°34' E 140°02'0 0.0
2017-Dec-07 08:59N 35°34' E 140°02'0 0.0
2017-Dec-07 08:29N 35°34' E 140°02'0 0.1
2017-Dec-07 07:59N 35°34' E 140°02'0 0.2
2017-Dec-07 07:29N 35°34' E 140°02'3 6.9
2017-Dec-07 07:00N 35°32' E 139°58'510.7
2017-Dec-07 06:31N 35°29' E 139°53'611.2
2017-Dec-07 06:01N 35°25' E 139°48'510.9
2017-Dec-07 05:31N 35°20' E 139°45'510.2
2017-Dec-07 05:01N 35°16' E 139°47'510.5
2017-Dec-07 04:30N 35°10' E 139°46'510.5
2017-Dec-07 04:00N 35°05' E 139°44'510.5
2017-Dec-07 03:30N 35°02' E 139°39'510.7
2017-Dec-07 03:00N 34°58' E 139°34'711.4
2017-Dec-07 02:23N 34°54' E 139°27'512.5
2017-Dec-07 01:58N 34°51' E 139°22'612.2
2017-Dec-07 01:27N 34°47' E 139°16'512.3
2017-Dec-07 01:00N 34°44' E 139°11'611.6
2017-Dec-07 00:30N 34°40' E 139°05'610.6
2017-Dec-06 23:59N 34°37' E 138°60'4 9.3
2017-Dec-06 23:30N 34°35' E 138°55'510.6
2017-Dec-06 23:00N 34°33' E 138°49'712.1
2017-Dec-06 22:26N 34°33' E 138°41'512.2
2017-Dec-06 22:00N 34°33' E 138°34'611.5
2017-Dec-06 21:30N 34°33' E 138°27'612.2
2017-Dec-06 21:00N 34°33' E 138°20'  
2017-Dec-03 08:36N 34°27' E 134°03'1011.5
2017-Dec-03 07:46N 34°24' E 134°14'310.8
2017-Dec-03 07:30N 34°25' E 134°18'510.5
2017-Dec-03 07:00N 34°26' E 134°24'510.8
2017-Dec-03 06:30N 34°28' E 134°30'510.9
2017-Dec-03 06:00N 34°30' E 134°36'510.5
2017-Dec-03 05:30N 34°32' E 134°42'510.2
2017-Dec-03 05:00N 34°34' E 134°48'5 9.0
2017-Dec-03 04:30N 34°36' E 134°53'4 8.5
2017-Dec-03 04:00N 34°37' E 134°58'4 7.2
2017-Dec-03 03:30N 34°37' E 135°02'4 8.3
2017-Dec-03 03:00N 34°36' E 135°07'510.9
2017-Dec-03 02:30N 34°36' E 135°13'611.0
2017-Dec-03 02:00N 34°37' E 135°20'5 9.2
2017-Dec-03 01:31N 34°35' E 135°25'0 0.2
2017-Dec-03 01:00N 34°35' E 135°26'0 0.0
2017-Dec-03 00:30N 34°35' E 135°26'2 4.1
2017-Dec-03 00:01N 34°36' E 135°24'3 5.5
2017-Dec-02 23:30N 34°35' E 135°20'3 5.8
2017-Dec-02 23:00N 34°33' E 135°18'510.6
2017-Dec-02 22:31N 34°29' E 135°14'611.2
2017-Dec-02 22:00N 34°25' E 135°09'611.2
2017-Dec-02 21:30N 34°22' E 135°04'611.4
2017-Dec-02 21:00N 34°17' E 134°59'611.2
2017-Dec-02 20:30N 34°12' E 134°59'611.2
2017-Dec-02 20:01N 34°06' E 135°01'611.4
2017-Dec-02 19:30N 34°00' E 135°02'611.4
2017-Dec-02 19:00N 33°55' E 135°02'105 7.6
2017-Dec-02 05:11N 34°33' E 137°01'210.0
2017-Dec-02 05:00N 34°34' E 136°59'5 9.6
2017-Dec-02 04:30N 34°39' E 136°58'510.4
2017-Dec-02 04:00N 34°44' E 136°59'510.9
2017-Dec-02 03:30N 34°49' E 136°56'3 2.0
2017-Dec-02 02:13N 34°52' E 136°56'0 0.0
2017-Dec-02 01:55N 34°52' E 136°56'0 0.0
2017-Dec-02 01:19N 34°52' E 136°56'0 0.0
2017-Dec-02 00:49N 34°52' E 136°56'0 0.0
2017-Dec-02 00:25N 34°52' E 136°56'0 0.0
2017-Dec-02 00:00N 34°52' E 136°56'3 6.1
2017-Dec-01 23:30N 34°49' E 136°57'510.1
2017-Dec-01 23:00N 34°44' E 136°59'5 9.3
2017-Dec-01 22:29N 34°39' E 136°59'4 9.2
2017-Dec-01 22:00N 34°35' E 136°59'9 8.3
2017-Dec-01 20:57N 34°33' E 137°09'4 9.7
2017-Dec-01 20:30N 34°33' E 137°15'5 9.7
2017-Dec-01 19:59N 34°33' E 137°21'  
Track history (hours):
 
Tides and Currents Weather Stations Pressure Air Temp Water Temp Dewpoint Dewpoint Depression Visibility Wind Speed Wind Dir Waves Ship Positions

Jfe Mercury

Last reported at 2017-Dec-11 16:59 UTC. Time now 2017-Dec-11 19:12 UTC.
Position N 34°35' E 135°18'.

Length 152 m; draft 4.1 m.

Type: Cargo ship. MMSI: 431000822.

Date/timePositionNaut miles runAvg speedWind from/ knotsBaromVisibWave heightAir tempDewpointWater temp
2017-Dec-11 16:59N 34°35' E 135°18'0 0.0
2017-Dec-11 16:29N 34°35' E 135°18'0 0.1
2017-Dec-11 15:59N 34°35' E 135°18'0 0.0
2017-Dec-11 15:29N 34°35' E 135°18'0 0.0
2017-Dec-11 14:59N 34°35' E 135°18'0 0.0
2017-Dec-11 14:29N 34°35' E 135°18'0 0.0
2017-Dec-11 13:59N 34°35' E 135°18'0 0.1
2017-Dec-11 13:29N 34°35' E 135°18'0 0.1
2017-Dec-11 12:59N 34°35' E 135°18'0 0.1
2017-Dec-11 12:29N 34°35' E 135°18'0 0.1
2017-Dec-11 11:59N 34°35' E 135°18'0 0.1
2017-Dec-11 11:29N 34°35' E 135°18'0 0.0
2017-Dec-11 10:59N 34°35' E 135°18'0 0.1
2017-Dec-11 10:29N 34°35' E 135°18'0 0.1
2017-Dec-11 09:59N 34°35' E 135°18'0 0.0
2017-Dec-11 09:29N 34°35' E 135°18'0 0.0
2017-Dec-11 08:59N 34°35' E 135°18'0 0.1
2017-Dec-11 08:29N 34°35' E 135°18'0 0.0
2017-Dec-11 07:59N 34°35' E 135°18'0 0.1
2017-Dec-11 07:29N 34°35' E 135°18'0 0.1
2017-Dec-11 06:59N 34°35' E 135°18'0 0.1
2017-Dec-11 06:29N 34°35' E 135°18'0 0.1
2017-Dec-11 05:56N 34°35' E 135°18'0 0.0
2017-Dec-11 05:29N 34°35' E 135°18'0 0.1
2017-Dec-11 04:59N 34°35' E 135°18'0 0.0
2017-Dec-11 04:29N 34°35' E 135°18'0 0.1
2017-Dec-11 03:59N 34°35' E 135°18'0 0.0
2017-Dec-11 03:29N 34°35' E 135°18'0 0.0
2017-Dec-11 02:59N 34°35' E 135°18'0 0.0
2017-Dec-11 02:29N 34°35' E 135°18'0 0.1
2017-Dec-11 01:59N 34°35' E 135°18'0 0.0
2017-Dec-11 01:29N 34°35' E 135°18'0 0.0
2017-Dec-11 00:59N 34°35' E 135°18'2 3.1
2017-Dec-11 00:30N 34°34' E 135°17'510.8
2017-Dec-11 00:00N 34°30' E 135°13'510.6
2017-Dec-10 23:30N 34°26' E 135°09'510.4
2017-Dec-10 23:00N 34°22' E 135°04'510.5
2017-Dec-10 22:30N 34°18' E 135°00'4 8.8
2017-Dec-10 22:00N 34°14' E 134°60'510.3
2017-Dec-10 21:30N 34°09' E 135°00'510.1
2017-Dec-10 21:00N 34°04' E 135°01'510.5
2017-Dec-10 20:30N 33°58' E 135°02'510.0
2017-Dec-10 19:59N 33°53' E 135°02'4 9.0
2017-Dec-10 19:29N 33°49' E 135°05'105 8.1
2017-Dec-10 06:36N 34°34' E 137°00'3 9.2
2017-Dec-10 06:14N 34°37' E 136°58'310.9
2017-Dec-10 06:00N 34°39' E 136°58'511.1
2017-Dec-10 05:30N 34°44' E 136°59'510.8
2017-Dec-10 05:00N 34°50' E 136°56'2 4.5
2017-Dec-10 04:29N 34°52' E 136°56'0 0.0
2017-Dec-10 03:59N 34°52' E 136°56'0 0.0
2017-Dec-10 03:29N 34°52' E 136°56'0 0.0
2017-Dec-10 02:59N 34°52' E 136°56'0 0.0
2017-Dec-10 02:29N 34°52' E 136°56'0 0.0
2017-Dec-10 01:47N 34°52' E 136°56'0 0.0
2017-Dec-10 01:29N 34°52' E 136°56'0 0.0
2017-Dec-10 00:59N 34°52' E 136°56'0 0.0
2017-Dec-10 00:29N 34°52' E 136°56'0 0.3
2017-Dec-10 00:01N 34°52' E 136°56'3 6.5
2017-Dec-09 23:31N 34°49' E 136°57'510.8
2017-Dec-09 23:01N 34°44' E 136°59'611.2
2017-Dec-09 22:31N 34°38' E 136°59'510.5
2017-Dec-09 22:01N 34°33' E 137°01'711.4
2017-Dec-09 21:26N 34°33' E 137°09'510.9
2017-Dec-09 21:00N 34°33' E 137°15'510.9
2017-Dec-09 20:31N 34°33' E 137°22'44 9.9
2017-Dec-09 16:06N 34°33' E 138°15'1 8.4
2017-Dec-09 15:58N 34°33' E 138°16'5 9.0
2017-Dec-09 15:25N 34°33' E 138°22'4 8.8
2017-Dec-09 15:00N 34°33' E 138°26'4 8.4
2017-Dec-09 14:30N 34°34' E 138°32'4 7.4
2017-Dec-09 13:56N 34°34' E 138°37'3 7.3
2017-Dec-09 13:29N 34°35' E 138°40'4 8.0
2017-Dec-09 13:00N 34°35' E 138°45'4 8.0
2017-Dec-09 12:30N 34°35' E 138°50'4 7.7
2017-Dec-09 11:59N 34°35' E 138°55'6 9.7
2017-Dec-09 11:21N 34°39' E 139°01'411.1
2017-Dec-09 10:59N 34°42' E 139°03'510.6
2017-Dec-09 10:30N 34°47' E 139°07'711.0
2017-Dec-09 09:54N 34°52' E 139°11'411.1
2017-Dec-09 09:30N 34°55' E 139°16'510.0
2017-Dec-09 08:58N 34°58' E 139°21'4 9.2
2017-Dec-09 08:30N 34°60' E 139°26'4 8.7
2017-Dec-09 08:01N 35°02' E 139°30'5 9.8
2017-Dec-09 07:31N 35°04' E 139°36'611.1
2017-Dec-09 07:00N 35°07' E 139°41'611.4
2017-Dec-09 06:30N 35°12' E 139°45'510.2
2017-Dec-09 06:00N 35°17' E 139°45'510.5
2017-Dec-09 05:30N 35°22' E 139°42'510.9
2017-Dec-09 05:00N 35°27' E 139°43'1 2.0
2017-Dec-09 04:28N 35°28' E 139°43'0 0.0
2017-Dec-09 03:58N 35°28' E 139°43'0 0.0
2017-Dec-09 03:28N 35°28' E 139°43'0 0.0
2017-Dec-09 02:58N 35°28' E 139°43'0 0.0
2017-Dec-09 02:28N 35°28' E 139°43'0 0.0
2017-Dec-09 01:58N 35°28' E 139°43'0 0.0
2017-Dec-09 01:28N 35°28' E 139°43'0 0.0
2017-Dec-09 00:55N 35°28' E 139°43'0 0.0
2017-Dec-09 00:28N 35°28' E 139°43'0 0.0
2017-Dec-08 23:55N 35°28' E 139°43'0 0.3
2017-Dec-08 23:30N 35°28' E 139°43'2 4.6
2017-Dec-08 23:00N 35°27' E 139°45'4 7.6
2017-Dec-08 22:30N 35°29' E 139°50'4 7.4
2017-Dec-08 22:00N 35°31' E 139°53'4 7.4
2017-Dec-08 21:30N 35°33' E 139°57'3 6.7
2017-Dec-08 21:01N 35°34' E 140°01'5 9.4
2017-Dec-08 20:30N 35°33' E 140°07'0 0.1
2017-Dec-08 18:58N 35°33' E 140°07'0 0.0
2017-Dec-08 14:34N 35°33' E 140°07'0 0.0
2017-Dec-08 14:16N 35°33' E 140°07'0 0.0
2017-Dec-08 13:46N 35°33' E 140°07'0 0.0
2017-Dec-08 13:16N 35°33' E 140°07'0 0.0
2017-Dec-08 12:46N 35°33' E 140°07'0 0.0
2017-Dec-08 12:28N 35°33' E 140°07'0 0.0
2017-Dec-08 10:52N 35°33' E 140°07'0 0.0
2017-Dec-08 10:28N 35°33' E 140°07'2 5.3
2017-Dec-08 10:00N 35°33' E 140°04'2 3.7
2017-Dec-08 09:29N 35°34' E 140°02'0 0.0
2017-Dec-08 08:59N 35°34' E 140°02'0 0.1
2017-Dec-08 08:29N 35°34' E 140°02'0 0.0
2017-Dec-08 07:59N 35°34' E 140°02'0 0.0
2017-Dec-08 07:29N 35°34' E 140°02'0 0.0
2017-Dec-08 06:59N 35°34' E 140°02'0 0.1
2017-Dec-08 06:29N 35°34' E 140°02'0 0.0
2017-Dec-08 05:59N 35°34' E 140°02'0 0.0
2017-Dec-08 05:29N 35°34' E 140°02'0 0.0
2017-Dec-08 04:59N 35°34' E 140°02'0 0.0
2017-Dec-08 04:29N 35°34' E 140°02'0 0.0
2017-Dec-08 03:59N 35°34' E 140°02'0 0.0
2017-Dec-08 03:29N 35°34' E 140°02'0 0.0
2017-Dec-08 02:59N 35°34' E 140°02'0 0.0
2017-Dec-08 02:29N 35°34' E 140°02'0 0.0
2017-Dec-08 01:59N 35°34' E 140°02'0 0.1
2017-Dec-08 01:29N 35°34' E 140°02'0 0.0
2017-Dec-08 00:59N 35°34' E 140°02'0 0.1
2017-Dec-08 00:29N 35°34' E 140°02'0 0.1
2017-Dec-07 23:59N 35°34' E 140°02'0 0.0
2017-Dec-07 23:29N 35°34' E 140°02'0 0.0
2017-Dec-07 22:59N 35°34' E 140°02'0 0.1
2017-Dec-07 22:29N 35°34' E 140°02'0 0.2
2017-Dec-07 21:59N 35°34' E 140°02'0 0.2
2017-Dec-07 21:29N 35°34' E 140°02'0 0.1
2017-Dec-07 20:59N 35°34' E 140°02'0 0.0
2017-Dec-07 20:29N 35°34' E 140°02'0 0.0
2017-Dec-07 19:59N 35°34' E 140°02'0 0.0
2017-Dec-07 19:29N 35°34' E 140°02'0 0.0
2017-Dec-07 18:59N 35°34' E 140°02'0 0.1
2017-Dec-07 18:29N 35°34' E 140°02'0 0.0
2017-Dec-07 17:59N 35°34' E 140°02'0 0.0
2017-Dec-07 17:29N 35°34' E 140°02'0 0.0
2017-Dec-07 16:59N 35°34' E 140°02'0 0.0
2017-Dec-07 16:29N 35°34' E 140°02'0 0.0
2017-Dec-07 15:59N 35°34' E 140°02'0 0.0
2017-Dec-07 15:29N 35°34' E 140°02'0 0.1
2017-Dec-07 14:59N 35°34' E 140°02'0 0.0
2017-Dec-07 14:29N 35°34' E 140°02'0 0.0
2017-Dec-07 13:59N 35°34' E 140°02'0 0.0
2017-Dec-07 13:29N 35°34' E 140°02'0 0.1
2017-Dec-07 12:59N 35°34' E 140°02'0 0.2
2017-Dec-07 12:29N 35°34' E 140°02'0 0.0
2017-Dec-07 11:59N 35°34' E 140°02'0 0.0
2017-Dec-07 11:29N 35°34' E 140°02'0 0.0
2017-Dec-07 10:59N 35°34' E 140°02'0 0.0
2017-Dec-07 10:29N 35°34' E 140°02'0 0.0
2017-Dec-07 09:59N 35°34' E 140°02'0 0.0
2017-Dec-07 09:29N 35°34' E 140°02'0 0.0
2017-Dec-07 08:59N 35°34' E 140°02'0 0.0
2017-Dec-07 08:29N 35°34' E 140°02'0 0.1
2017-Dec-07 07:59N 35°34' E 140°02'0 0.2
2017-Dec-07 07:29N 35°34' E 140°02'3 6.9
2017-Dec-07 07:00N 35°32' E 139°58'510.7
2017-Dec-07 06:31N 35°29' E 139°53'611.2
2017-Dec-07 06:01N 35°25' E 139°48'510.9
2017-Dec-07 05:31N 35°20' E 139°45'510.2
2017-Dec-07 05:01N 35°16' E 139°47'510.5
2017-Dec-07 04:30N 35°10' E 139°46'510.5
2017-Dec-07 04:00N 35°05' E 139°44'510.5
2017-Dec-07 03:30N 35°02' E 139°39'510.7
2017-Dec-07 03:00N 34°58' E 139°34'711.4
2017-Dec-07 02:23N 34°54' E 139°27'512.5
2017-Dec-07 01:58N 34°51' E 139°22'612.2
2017-Dec-07 01:27N 34°47' E 139°16'512.3
2017-Dec-07 01:00N 34°44' E 139°11'611.6
2017-Dec-07 00:30N 34°40' E 139°05'610.6
2017-Dec-06 23:59N 34°37' E 138°60'4 9.3
2017-Dec-06 23:30N 34°35' E 138°55'510.6
2017-Dec-06 23:00N 34°33' E 138°49'712.1
2017-Dec-06 22:26N 34°33' E 138°41'512.2
2017-Dec-06 22:00N 34°33' E 138°34'611.5
2017-Dec-06 21:30N 34°33' E 138°27'612.2
2017-Dec-06 21:00N 34°33' E 138°20'  
2017-Dec-03 08:36N 34°27' E 134°03'1011.5
2017-Dec-03 07:46N 34°24' E 134°14'310.8
2017-Dec-03 07:30N 34°25' E 134°18'510.5
2017-Dec-03 07:00N 34°26' E 134°24'510.8
2017-Dec-03 06:30N 34°28' E 134°30'510.9
2017-Dec-03 06:00N 34°30' E 134°36'510.5
2017-Dec-03 05:30N 34°32' E 134°42'510.2
2017-Dec-03 05:00N 34°34' E 134°48'5 9.0
2017-Dec-03 04:30N 34°36' E 134°53'4 8.5
2017-Dec-03 04:00N 34°37' E 134°58'4 7.2
2017-Dec-03 03:30N 34°37' E 135°02'4 8.3
2017-Dec-03 03:00N 34°36' E 135°07'510.9
2017-Dec-03 02:30N 34°36' E 135°13'611.0
2017-Dec-03 02:00N 34°37' E 135°20'5 9.2
2017-Dec-03 01:31N 34°35' E 135°25'0 0.2
2017-Dec-03 01:00N 34°35' E 135°26'0 0.0
2017-Dec-03 00:30N 34°35' E 135°26'2 4.1
2017-Dec-03 00:01N 34°36' E 135°24'3 5.5
2017-Dec-02 23:30N 34°35' E 135°20'3 5.8
2017-Dec-02 23:00N 34°33' E 135°18'510.6
2017-Dec-02 22:31N 34°29' E 135°14'611.2
2017-Dec-02 22:00N 34°25' E 135°09'611.2
2017-Dec-02 21:30N 34°22' E 135°04'611.4
2017-Dec-02 21:00N 34°17' E 134°59'611.2
2017-Dec-02 20:30N 34°12' E 134°59'611.2
2017-Dec-02 20:01N 34°06' E 135°01'611.4
2017-Dec-02 19:30N 34°00' E 135°02'611.4
2017-Dec-02 19:00N 33°55' E 135°02'105 7.6
2017-Dec-02 05:11N 34°33' E 137°01'210.0
2017-Dec-02 05:00N 34°34' E 136°59'5 9.6
2017-Dec-02 04:30N 34°39' E 136°58'510.4
2017-Dec-02 04:00N 34°44' E 136°59'510.9
2017-Dec-02 03:30N 34°49' E 136°56'3 2.0
2017-Dec-02 02:13N 34°52' E 136°56'0 0.0
2017-Dec-02 01:55N 34°52' E 136°56'0 0.0
2017-Dec-02 01:19N 34°52' E 136°56'0 0.0
2017-Dec-02 00:49N 34°52' E 136°56'0 0.0
2017-Dec-02 00:25N 34°52' E 136°56'0 0.0
2017-Dec-02 00:00N 34°52' E 136°56'3 6.1
2017-Dec-01 23:30N 34°49' E 136°57'510.1
2017-Dec-01 23:00N 34°44' E 136°59'5 9.3
2017-Dec-01 22:29N 34°39' E 136°59'4 9.2
2017-Dec-01 22:00N 34°35' E 136°59'9 8.3
2017-Dec-01 20:57N 34°33' E 137°09'4 9.7
2017-Dec-01 20:30N 34°33' E 137°15'5 9.7
2017-Dec-01 19:59N 34°33' E 137°21'  

Dump ship's entire track history